KOGD/OGD METAR and TAF weather

Enter ICAO airport designator
Station Type Date Time Source
KOGD METAR 2020/08/15 16:53 UTC NOAA

KOGD 151653Z 18005KT 10SM CLR 29/01 A3024 RMK AO2 SLP173 T02890006 $


Station Type Date Time Source
KOGD Decoded METAR 2020/08/15 16:53 UTC NOAA

OGDEN-HINCKLEY AIRPORT, UT, United States (KOGD) 41-12N 112-01W 1353M
Aug 15, 2020 - 12:53 PM EDT / 2020.08.15 1653 UTC
Wind: from the S (180 degrees) at 6 MPH (5 KT):0
Visibility: 10 mile(s):0
Sky conditions: clear
Temperature: 84.0 F (28.9 C)
Dew Point: 33.1 F (0.6 C)
Relative Humidity: 16%
Pressure (altimeter): 30.24 in. Hg (1024 hPa)
ob: KOGD 151653Z 18005KT 10SM CLR 29/01 A3024 RMK AO2 SLP173 T02890006
cycle: 17

Station Type Date Time Source
KOGD TAF 2020/08/15 12:22 UTC NOAA

TAF KOGD 151120Z 1512/1612 17006KT P6SM SKC
FM151700 25005KT P6SM FEW140
FM160300 16006KT P6SM SKC

Example: see airport list